Time;durP1;ratioP1;P1;durP2;ratioP2;P2;SDS_P1;SDS_P2;PMS_P1;PMS_P2;Temp;Humidity;BMP_temperature;BMP_pressure;BME280_temperature;BME280_humidity;BME280_pressure;Samples;Min_cycle;Max_cycle;Signal;HPM_P1;HPM_P2
2021/03/27 00:02:16;;;;;;;7.77;5.80;;;11.20;99.90;;;;;;5014110;28;20693;-75
2021/03/27 00:04:49;;;;;;;7.50;5.97;;;11.20;99.90;;;;;;5013081;28;20313;-75
2021/03/27 00:07:23;;;;;;;8.40;6.00;;;11.20;99.90;;;;;;5012299;28;20182;-75
2021/03/27 00:09:50;;;;;;;7.97;6.43;;;11.30;99.90;;;;;;5011987;28;20179;-76
2021/03/27 00:12:31;;;;;;;6.97;6.00;;;11.30;99.90;;;;;;5011567;28;20328;-75
2021/03/27 00:15:17;;;;;;;6.97;6.07;;;11.40;99.90;;;;;;5010451;28;20190;-75
2021/03/27 00:17:48;;;;;;;6.17;5.57;;;11.40;99.90;;;;;;5011597;28;20205;-75
2021/03/27 00:20:25;;;;;;;5.83;5.00;;;11.50;99.90;;;;;;5011661;28;20218;-76
2021/03/27 00:22:59;;;;;;;5.50;5.00;;;11.50;99.90;;;;;;5011513;28;20618;-75
2021/03/27 00:25:29;;;;;;;5.57;5.07;;;11.40;99.90;;;;;;5010213;28;20203;-76
2021/03/27 00:28:13;;;;;;;5.03;4.43;;;11.50;99.90;;;;;;5011524;28;20190;-75
2021/03/27 00:30:50;;;;;;;4.73;4.30;;;11.50;99.90;;;;;;5011530;28;20175;-76
2021/03/27 00:33:17;;;;;;;5.47;3.70;;;11.40;99.90;;;;;;5011542;28;20178;-76
2021/03/27 00:35:56;;;;;;;3.87;3.47;;;11.30;99.90;;;;;;5000521;28;20188;-75
2021/03/27 00:38:25;;;;;;;3.50;3.20;;;11.40;99.90;;;;;;5011324;28;20186;-76
2021/03/27 00:40:53;;;;;;;3.33;3.03;;;11.30;99.90;;;;;;5011517;28;20257;-75
2021/03/27 00:43:31;;;;;;;3.33;3.03;;;11.20;99.90;;;;;;5015160;28;20187;-75
2021/03/27 00:46:02;;;;;;;3.30;3.00;;;11.30;99.90;;;;;;5013559;28;20195;-75
2021/03/27 00:48:43;;;;;;;3.00;2.80;;;11.20;99.90;;;;;;5015144;28;20633;-76
2021/03/27 00:51:30;;;;;;;3.00;2.70;;;11.10;99.90;;;;;;5016611;28;20207;-75
2021/03/27 00:54:11;;;;;;;2.57;2.37;;;11.10;99.90;;;;;;5016323;28;20174;-75
2021/03/27 00:56:58;;;;;;;3.20;3.00;;;11.10;99.90;;;;;;5016411;28;20185;-75
2021/03/27 00:59:27;;;;;;;3.13;2.77;;;11.10;99.90;;;;;;5016375;28;20689;-75
2021/03/27 01:01:58;;;;;;;3.13;2.83;;;11.10;99.90;;;;;;5016093;28;20683;-75
2021/03/27 01:04:31;;;;;;;3.40;3.10;;;11.20;99.90;;;;;;5016243;28;20206;-75
2021/03/27 01:07:02;;;;;;;2.70;2.50;;;11.10;99.90;;;;;;5016168;28;20185;-75
2021/03/27 01:09:37;;;;;;;2.80;2.60;;;11.10;99.90;;;;;;5016163;28;20177;-76
2021/03/27 01:12:08;;;;;;;3.37;3.07;;;11.10;99.90;;;;;;5014557;28;20202;-75
2021/03/27 01:15:06;;;;;;;4.07;3.13;;;11.00;99.90;;;;;;5016132;28;20186;-75
2021/03/27 01:17:35;;;;;;;7.73;4.97;;;11.10;99.90;;;;;;5015762;28;20182;-75
2021/03/27 01:20:10;;;;;;;5.23;4.30;;;11.20;99.90;;;;;;5015912;28;20256;-75
2021/03/27 01:22:36;;;;;;;6.57;4.53;;;11.10;99.90;;;;;;5014484;28;20210;-75
2021/03/27 01:25:04;;;;;;;6.43;4.50;;;11.20;99.90;;;;;;5015740;28;20654;-75
2021/03/27 01:27:45;;;;;;;7.20;5.03;;;11.20;99.90;;;;;;5015964;28;20175;-75
2021/03/27 01:30:23;;;;;;;5.83;4.47;;;11.10;99.90;;;;;;5014504;28;20657;-75
2021/03/27 01:33:18;;;;;;;4.37;3.93;;;11.00;99.90;;;;;;5015521;28;20225;-75
2021/03/27 01:36:11;;;;;;;4.23;3.63;;;10.90;99.90;;;;;;5014399;28;20277;-75
2021/03/27 01:38:46;;;;;;;4.90;3.90;;;10.80;99.90;;;;;;5015570;28;20179;-76
2021/03/27 01:41:19;;;;;;;4.40;4.00;;;10.60;99.90;;;;;;5015632;28;20257;-75
2021/03/27 01:44:08;;;;;;;4.60;4.07;;;10.60;99.90;;;;;;5015634;28;20233;-76
2021/03/27 01:47:05;;;;;;;4.63;4.00;;;10.30;99.90;;;;;;5015616;28;20220;-76
2021/03/27 01:49:49;;;;;;;5.93;3.80;;;10.20;99.90;;;;;;5011024;28;20186;-76
2021/03/27 01:52:24;;;;;;;4.27;3.97;;;10.10;99.90;;;;;;5015142;28;20742;-76
2021/03/27 01:55:26;;;;;;;4.47;4.07;;;10.10;99.90;;;;;;5013958;28;20197;-76
2021/03/27 01:58:21;;;;;;;4.70;4.30;;;10.10;99.90;;;;;;5016662;28;20671;-76
2021/03/27 02:00:55;;;;;;;5.13;4.17;;;10.10;99.90;;;;;;5002181;28;20186;-75
2021/03/27 02:03:28;;;;;;;4.63;4.27;;;10.20;99.90;;;;;;5015301;28;20193;-76
2021/03/27 02:06:08;;;;;;;4.90;4.50;;;10.20;99.90;;;;;;5015068;28;20277;-75
2021/03/27 02:08:48;;;;;;;5.47;4.43;;;10.10;99.90;;;;;;5013744;28;20190;-76
2021/03/27 02:11:22;;;;;;;5.17;4.67;;;10.10;99.90;;;;;;5014851;28;20605;-75
2021/03/27 02:14:05;;;;;;;4.97;4.47;;;10.10;99.90;;;;;;5014850;28;20183;-76
2021/03/27 02:16:58;;;;;;;4.17;3.77;;;10.10;99.90;;;;;;5014904;28;20175;-75
2021/03/27 02:19:42;;;;;;;5.57;4.20;;;10.10;99.90;;;;;;5014724;28;20261;-76
2021/03/27 02:22:28;;;;;;;5.27;4.70;;;10.00;99.90;;;;;;5014689;28;20197;-76
2021/03/27 02:25:06;;;;;;;5.20;4.80;;;9.90;99.90;;;;;;5013383;28;20584;-76
2021/03/27 02:27:51;;;;;;;4.90;4.40;;;10.00;99.90;;;;;;5014715;28;20186;-76
2021/03/27 02:30:36;;;;;;;6.70;5.10;;;10.00;99.90;;;;;;5014803;28;20188;-76
2021/03/27 02:33:22;;;;;;;5.93;5.33;;;9.90;99.90;;;;;;5014397;28;20262;-76
2021/03/27 02:36:03;;;;;;;5.67;5.07;;;9.90;99.90;;;;;;5014547;28;20248;-76
2021/03/27 02:38:28;;;;;;;5.70;5.10;;;10.00;99.90;;;;;;5014433;28;20288;-76
2021/03/27 02:41:16;;;;;;;5.03;4.53;;;9.90;99.90;;;;;;5014340;28;20261;-75
2021/03/27 02:43:53;;;;;;;4.47;4.07;;;9.80;99.90;;;;;;5012795;28;20185;-75
2021/03/27 02:46:34;;;;;;;4.30;3.90;;;9.90;99.90;;;;;;5008634;28;20235;-76
2021/03/27 02:49:15;;;;;;;4.57;3.60;;;10.00;99.90;;;;;;5012520;28;20179;-76
2021/03/27 02:52:24;;;;;;;4.30;3.60;;;10.00;99.90;;;;;;5014135;28;20202;-76
2021/03/27 02:54:56;;;;;;;4.67;3.57;;;10.00;99.90;;;;;;5014204;28;20179;-76
2021/03/27 02:57:27;;;;;;;3.70;3.40;;;9.90;99.90;;;;;;5012263;28;20285;-76
2021/03/27 02:59:52;;;;;;;3.77;3.40;;;9.80;99.90;;;;;;5014128;28;20622;-76
2021/03/27 03:02:38;;;;;;;3.80;3.37;;;9.80;99.90;;;;;;5014055;28;20205;-76
2021/03/27 03:05:34;;;;;;;3.67;2.97;;;9.60;99.90;;;;;;4973239;28;20585;-76
2021/03/27 03:08:31;;;;;;;3.70;3.10;;;9.70;99.90;;;;;;5014441;28;20703;-76
2021/03/27 03:11:05;;;;;;;3.90;2.50;;;9.60;99.90;;;;;;5013790;28;20556;-76
2021/03/27 03:13:42;;;;;;;2.27;2.07;;;9.60;99.90;;;;;;5012683;28;20191;-76
2021/03/27 03:16:19;;;;;;;2.10;1.90;;;9.50;99.90;;;;;;5013787;28;20189;-76
2021/03/27 03:19:12;;;;;;;2.57;2.37;;;9.50;99.90;;;;;;5013885;28;20676;-75
2021/03/27 03:22:00;;;;;;;3.27;1.97;;;9.40;99.90;;;;;;5013727;28;20196;-76
2021/03/27 03:24:44;;;;;;;2.77;2.07;;;9.50;99.90;;;;;;5013701;28;20685;-76
2021/03/27 03:27:48;;;;;;;2.13;1.93;;;9.30;99.90;;;;;;5013728;28;20185;-75
2021/03/27 03:30:25;;;;;;;2.40;1.73;;;9.20;99.90;;;;;;5013660;28;20176;-76
2021/03/27 03:33:03;;;;;;;2.10;1.90;;;9.20;99.90;;;;;;5013318;28;20264;-76
2021/03/27 03:35:55;;;;;;;1.90;1.70;;;9.20;99.90;;;;;;5036984;22;20691;-75
2021/03/27 03:38:57;;;;;;;2.47;2.00;;;9.20;99.90;;;;;;5019655;28;20180;-75
2021/03/27 03:41:43;;;;;;;2.30;1.67;;;9.10;99.90;;;;;;4975555;28;20181;-76
2021/03/27 03:44:16;;;;;;;2.30;1.70;;;9.00;99.90;;;;;;5018395;28;20222;-76
2021/03/27 03:47:16;;;;;;;1.50;1.37;;;9.00;99.90;;;;;;5034009;28;20197;-76
2021/03/27 03:49:57;;;;;;;2.80;1.80;;;9.10;99.90;;;;;;5034061;28;20176;-76
2021/03/27 03:52:33;;;;;;;1.90;1.80;;;9.10;99.90;;;;;;5031913;28;20177;-76
2021/03/27 03:55:00;;;;;;;1.90;1.80;;;9.00;99.90;;;;;;5025889;28;20184;-76
2021/03/27 03:57:49;;;;;;;1.70;1.60;;;8.90;99.90;;;;;;5033257;28;20169;-76
2021/03/27 04:00:18;;;;;;;2.23;2.00;;;9.00;99.90;;;;;;5033046;28;20596;-76
2021/03/27 04:02:52;;;;;;;2.40;2.00;;;9.00;99.90;;;;;;5033228;28;20577;-75
2021/03/27 04:05:31;;;;;;;2.70;2.27;;;9.00;99.90;;;;;;5031551;28;20694;-75
2021/03/27 04:08:05;;;;;;;2.33;2.13;;;9.00;99.90;;;;;;5033279;28;20187;-76
2021/03/27 04:10:34;;;;;;;2.47;2.00;;;9.10;99.90;;;;;;5032822;28;20181;-75
2021/03/27 04:13:32;;;;;;;2.57;2.10;;;9.10;99.90;;;;;;5032971;28;20200;-75
2021/03/27 04:16:03;;;;;;;3.10;2.50;;;9.10;99.90;;;;;;5003921;28;20220;-76
2021/03/27 04:18:34;;;;;;;3.33;2.40;;;9.00;99.90;;;;;;5006407;28;20182;-75
2021/03/27 04:21:08;;;;;;;2.50;2.30;;;9.10;99.90;;;;;;4997616;28;20177;-76
2021/03/27 04:23:54;;;;;;;2.50;2.17;;;9.10;99.90;;;;;;4997289;28;20183;-75
2021/03/27 04:26:27;;;;;;;2.53;2.30;;;9.00;99.90;;;;;;4994523;28;20307;-75
2021/03/27 04:29:11;;;;;;;2.87;2.07;;;9.10;99.90;;;;;;4997430;28;20558;-75
2021/03/27 04:32:02;;;;;;;3.47;2.70;;;9.10;99.90;;;;;;4999256;28;20253;-75
2021/03/27 04:34:43;;;;;;;3.50;2.43;;;9.20;99.90;;;;;;4998877;28;20177;-75
2021/03/27 04:37:39;;;;;;;2.77;2.40;;;9.20;99.90;;;;;;4995860;28;20588;-75
2021/03/27 04:40:09;;;;;;;4.13;2.70;;;9.20;99.90;;;;;;4994985;28;20178;-76
2021/03/27 04:42:56;;;;;;;3.20;2.63;;;9.30;99.90;;;;;;4999373;28;20173;-75
2021/03/27 04:45:38;;;;;;;3.27;2.93;;;9.30;99.90;;;;;;4998234;28;20212;-75
2021/03/27 04:48:31;;;;;;;3.20;2.50;;;9.40;99.90;;;;;;4996563;28;20182;-75
2021/03/27 04:51:37;;;;;;;3.40;2.60;;;9.40;99.90;;;;;;4996819;28;20166;-75
2021/03/27 04:54:11;;;;;;;4.03;3.10;;;9.30;99.90;;;;;;4998387;28;20179;-76
2021/03/27 04:57:01;;;;;;;4.63;2.63;;;9.30;99.90;;;;;;4999811;28;20201;-76
2021/03/27 04:59:59;;;;;;;3.30;3.00;;;9.30;99.90;;;;;;4996172;28;20229;-75
2021/03/27 05:02:43;;;;;;;4.50;2.10;;;9.20;99.90;;;;;;4998314;28;20268;-76
2021/03/27 05:05:15;;;;;;;3.73;2.70;;;9.30;99.90;;;;;;5000365;28;22050;-75
2021/03/27 05:07:50;;;;;;;5.10;2.53;;;9.20;99.90;;;;;;5001413;28;20179;-76
2021/03/27 05:10:29;;;;;;;2.50;2.30;;;9.10;99.90;;;;;;5000838;28;20225;-75
2021/03/27 05:13:10;;;;;;;3.20;2.70;;;9.10;99.90;;;;;;4999094;28;20188;-75
2021/03/27 05:15:48;;;;;;;3.03;2.27;;;9.10;99.90;;;;;;5005320;28;20206;-74
2021/03/27 05:18:28;;;;;;;3.03;2.40;;;9.10;99.90;;;;;;5006347;28;20240;-76
2021/03/27 05:21:05;;;;;;;3.23;2.13;;;9.10;99.90;;;;;;5007755;28;20187;-76
2021/03/27 05:23:54;;;;;;;3.90;2.50;;;8.90;99.90;;;;;;5034580;28;20176;-76
2021/03/27 05:26:45;;;;;;;2.80;2.50;;;8.90;99.90;;;;;;5035544;28;20247;-76
2021/03/27 05:29:36;;;;;;;2.40;2.20;;;8.90;99.90;;;;;;5006556;28;20189;-76
2021/03/27 05:32:55;;;;;;;2.67;2.40;;;8.80;99.90;;;;;;5018420;28;20178;-76
2021/03/27 05:35:39;;;;;;;2.67;2.30;;;8.90;99.90;;;;;;4993975;28;20221;-76
2021/03/27 05:38:07;;;;;;;2.37;1.93;;;8.80;99.90;;;;;;4993698;28;20191;-76
2021/03/27 05:40:45;;;;;;;2.17;1.93;;;8.80;99.90;;;;;;5018829;28;20207;-76
2021/03/27 05:43:26;;;;;;;4.10;2.60;;;8.70;99.90;;;;;;5035493;28;20665;-76
2021/03/27 05:45:52;;;;;;;3.20;2.03;;;8.70;99.90;;;;;;5035113;28;20227;-76
2021/03/27 05:48:53;;;;;;;2.33;1.73;;;8.80;99.90;;;;;;5035156;28;20550;-76
2021/03/27 05:51:57;;;;;;;2.10;1.90;;;8.80;99.90;;;;;;5034913;28;20655;-76
2021/03/27 05:55:00;;;;;;;2.73;1.70;;;8.70;99.90;;;;;;5035025;28;20247;-76
2021/03/27 05:57:55;;;;;;;2.87;1.77;;;8.70;99.90;;;;;;5032638;28;20175;-76
2021/03/27 06:00:33;;;;;;;1.83;1.63;;;8.70;99.90;;;;;;5032874;28;20176;-76
2021/03/27 06:03:17;;;;;;;2.10;1.17;;;8.70;99.90;;;;;;5035083;28;20187;-76
2021/03/27 06:06:10;;;;;;;1.57;1.30;;;8.70;99.90;;;;;;5034972;28;20285;-76
2021/03/27 06:08:58;;;;;;;2.60;1.03;;;8.80;99.90;;;;;;5034688;28;20654;-76
2021/03/27 06:11:37;;;;;;;1.37;0.90;;;8.80;99.90;;;;;;5034285;28;20235;-76
2021/03/27 06:14:48;;;;;;;2.13;1.00;;;8.90;99.90;;;;;;5035020;28;20245;-76
2021/03/27 06:17:48;;;;;;;1.57;0.80;;;8.80;99.90;;;;;;5036603;28;20271;-76
2021/03/27 06:20:13;;;;;;;1.20;0.90;;;8.70;99.90;;;;;;5035309;28;20198;-76
2021/03/27 06:23:03;;;;;;;0.60;0.60;;;8.50;99.90;;;;;;5035206;28;20607;-76
2021/03/27 06:26:00;;;;;;;1.23;1.03;;;8.40;99.90;;;;;;5034453;28;20218;-76
2021/03/27 06:28:44;;;;;;;1.93;1.00;;;8.30;99.90;;;;;;5034769;28;20260;-76
2021/03/27 06:31:48;;;;;;;1.10;0.77;;;8.10;99.90;;;;;;5030309;28;20225;-76
2021/03/27 06:34:28;;;;;;;0.83;0.80;;;8.10;99.90;;;;;;5029978;28;20187;-76
2021/03/27 06:37:12;;;;;;;0.90;0.70;;;7.90;99.90;;;;;;5032827;28;20230;-76
2021/03/27 06:39:43;;;;;;;0.80;0.80;;;7.90;99.90;;;;;;5034381;28;20189;-76
2021/03/27 06:42:27;;;;;;;1.17;0.50;;;7.80;99.90;;;;;;5032929;28;20190;-76
2021/03/27 06:45:12;;;;;;;0.97;0.50;;;7.80;99.90;;;;;;5032237;28;20627;-76
2021/03/27 06:48:25;;;;;;;0.97;0.63;;;7.70;99.90;;;;;;5034493;28;20212;-76
2021/03/27 06:51:19;;;;;;;1.07;0.50;;;7.60;99.90;;;;;;4988268;28;20213;-76
2021/03/27 06:54:26;;;;;;;0.57;0.57;;;7.60;99.90;;;;;;5033881;28;20209;-76
2021/03/27 06:57:29;;;;;;;0.70;0.60;;;7.60;99.90;;;;;;5019653;28;20206;-76
2021/03/27 07:00:13;;;;;;;1.13;0.70;;;7.50;99.90;;;;;;5001022;28;20203;-76
2021/03/27 07:02:54;;;;;;;1.10;0.50;;;7.40;99.90;;;;;;5010467;28;20199;-76
2021/03/27 07:05:53;;;;;;;1.10;0.60;;;7.50;99.90;;;;;;5000319;28;20244;-75
2021/03/27 07:08:51;;;;;;;1.47;0.60;;;7.50;99.90;;;;;;5008008;28;20673;-75
2021/03/27 07:11:35;;;;;;;2.27;0.70;;;7.50;99.90;;;;;;4961023;28;20212;-75
2021/03/27 07:14:37;;;;;;;1.00;0.50;;;7.50;99.90;;;;;;4999197;28;20185;-75
2021/03/27 07:17:24;;;;;;;1.23;0.90;;;7.40;99.90;;;;;;4979855;28;20219;-75
2021/03/27 07:19:55;;;;;;;1.13;0.70;;;7.50;99.90;;;;;;4992801;28;20585;-75
2021/03/27 07:22:27;;;;;;;1.10;0.57;;;7.50;99.90;;;;;;5028479;28;20178;-75
2021/03/27 07:25:32;;;;;;;2.60;0.43;;;7.50;99.90;;;;;;4995520;28;20544;-75
2021/03/27 07:28:06;;;;;;;0.60;0.40;;;7.50;99.90;;;;;;4991960;28;20181;-75
2021/03/27 07:30:47;;;;;;;0.87;0.50;;;7.40;99.90;;;;;;5022800;28;20683;-75
2021/03/27 07:33:40;;;;;;;0.83;0.30;;;7.50;99.90;;;;;;5016282;28;20695;-75
2021/03/27 07:36:40;;;;;;;0.80;0.37;;;7.60;99.90;;;;;;5024953;28;20256;-76
2021/03/27 07:39:27;;;;;;;0.97;0.50;;;7.50;99.90;;;;;;5010107;28;20203;-76
2021/03/27 07:42:17;;;;;;;1.00;0.47;;;7.60;99.90;;;;;;5023545;28;20232;-76
2021/03/27 07:45:20;;;;;;;1.53;0.53;;;7.70;99.90;;;;;;5032948;28;20202;-76
2021/03/27 07:48:34;;;;;;;3.03;0.73;;;7.80;99.90;;;;;;5033210;28;20182;-77
2021/03/27 07:51:23;;;;;;;5.40;1.10;;;7.90;99.90;;;;;;5017885;28;20721;-76
2021/03/27 07:54:10;;;;;;;4.60;0.67;;;7.90;99.90;;;;;;4978251;28;20665;-77
2021/03/27 07:57:12;;;;;;;1.27;0.40;;;8.10;99.90;;;;;;5035734;28;20200;-76
2021/03/27 08:00:00;;;;;;;1.73;0.70;;;8.10;99.90;;;;;;5006445;28;20190;-76
2021/03/27 08:02:47;;;;;;;1.50;0.50;;;8.20;99.90;;;;;;5036875;28;20210;-76
2021/03/27 08:05:58;;;;;;;1.27;0.60;;;8.10;99.90;;;;;;5037202;28;20806;-76
2021/03/27 08:08:26;;;;;;;2.97;1.90;;;8.10;99.90;;;;;;5034848;28;20190;-76
2021/03/27 08:11:24;;;;;;;1.60;0.93;;;7.90;99.90;;;;;;5037048;28;20212;-76
2021/03/27 08:14:18;;;;;;;2.93;1.40;;;7.90;99.90;;;;;;5022806;28;20197;-76
2021/03/27 08:16:56;;;;;;;4.33;1.50;;;7.80;99.90;;;;;;5023862;28;20202;-75
2021/03/27 08:19:54;;;;;;;5.13;1.27;;;7.80;99.90;;;;;;5024604;28;20246;-76
2021/03/27 08:22:42;;;;;;;3.07;1.03;;;7.70;99.90;;;;;;5035748;28;20550;-76
2021/03/27 08:25:38;;;;;;;1.73;0.80;;;7.90;99.90;;;;;;5035316;28;20249;-76
2021/03/27 08:28:37;;;;;;;1.73;0.80;;;8.10;99.90;;;;;;5036194;28;20195;-76
2021/03/27 08:31:37;;;;;;;1.77;0.67;;;8.10;99.90;;;;;;5033228;28;20556;-76
2021/03/27 08:34:27;;;;;;;3.27;0.80;;;8.20;99.90;;;;;;5029673;28;20547;-76
2021/03/27 08:37:14;;;;;;;1.23;0.70;;;8.30;99.90;;;;;;5035270;28;20618;-76
2021/03/27 08:40:24;;;;;;;2.10;0.60;;;8.40;99.90;;;;;;5036766;28;20231;-75
2021/03/27 08:43:24;;;;;;;4.63;0.90;;;8.40;99.90;;;;;;5035209;28;20656;-76
2021/03/27 08:46:05;;;;;;;1.90;0.63;;;8.40;99.90;;;;;;5036393;28;20233;-76
2021/03/27 08:49:07;;;;;;;1.17;0.50;;;8.40;99.90;;;;;;5035085;28;20176;-76
2021/03/27 08:51:59;;;;;;;1.90;0.67;;;8.40;99.90;;;;;;5035451;28;20558;-76
2021/03/27 08:54:48;;;;;;;1.37;0.40;;;8.50;99.90;;;;;;5036350;28;20533;-75
2021/03/27 08:57:30;;;;;;;1.63;0.63;;;8.60;99.90;;;;;;5028552;28;20228;-76
2021/03/27 09:00:26;;;;;;;1.97;0.60;;;8.70;99.90;;;;;;5030160;28;20183;-75
2021/03/27 09:03:32;;;;;;;2.93;0.50;;;8.80;99.90;;;;;;5004501;28;20180;-75
2021/03/27 09:06:21;;;;;;;0.83;0.60;;;8.90;99.90;;;;;;5015250;28;20585;-76
2021/03/27 09:08:52;;;;;;;1.67;0.60;;;8.80;99.90;;;;;;5034153;28;20177;-76
2021/03/27 09:11:33;;;;;;;2.67;0.60;;;8.70;99.90;;;;;;5035750;28;20216;-76
2021/03/27 09:14:35;;;;;;;1.10;0.63;;;8.80;99.90;;;;;;5034233;28;20654;-76
2021/03/27 09:17:22;;;;;;;2.53;1.10;;;8.80;99.90;;;;;;5035733;28;20210;-76
2021/03/27 09:19:47;;;;;;;1.60;0.67;;;8.80;99.90;;;;;;5019577;28;20264;-75
2021/03/27 09:22:43;;;;;;;1.13;0.40;;;9.00;99.90;;;;;;5031402;28;20263;-76
2021/03/27 09:25:46;;;;;;;1.90;0.67;;;9.10;99.90;;;;;;5015927;28;20307;-75
2021/03/27 09:28:20;;;;;;;1.20;0.60;;;9.20;99.90;;;;;;5014877;28;20733;-76
2021/03/27 09:31:30;;;;;;;2.33;0.60;;;9.20;99.90;;;;;;5035282;28;20173;-76
2021/03/27 09:34:21;;;;;;;0.80;0.50;;;9.10;99.90;;;;;;5024298;28;20553;-76
2021/03/27 09:36:58;;;;;;;1.10;0.40;;;9.00;99.90;;;;;;5055542;22;20299;-74
2021/03/27 09:39:26;;;;;;;1.33;0.83;;;8.90;99.90;;;;;;5033960;28;20179;-73
2021/03/27 09:42:05;;;;;;;0.70;0.40;;;8.90;99.90;;;;;;5029204;28;20184;-74
2021/03/27 09:44:42;;;;;;;1.27;0.70;;;8.80;99.90;;;;;;5034183;28;20191;-74
2021/03/27 09:47:25;;;;;;;1.40;0.77;;;8.60;99.90;;;;;;5035457;28;20277;-73
2021/03/27 09:50:03;;;;;;;2.00;0.90;;;8.80;99.90;;;;;;5035014;28;20247;-73
2021/03/27 09:52:56;;;;;;;1.87;0.57;;;8.90;99.90;;;;;;5034676;28;20173;-74
2021/03/27 09:55:43;;;;;;;0.77;0.40;;;9.00;99.90;;;;;;5016455;28;20172;-73
2021/03/27 09:58:28;;;;;;;0.73;0.50;;;9.20;99.90;;;;;;5004116;28;20673;-73
2021/03/27 10:01:01;;;;;;;2.93;0.50;;;9.20;99.90;;;;;;5034823;28;20186;-73
2021/03/27 10:04:01;;;;;;;1.07;0.63;;;9.30;99.90;;;;;;5034871;28;20181;-74
2021/03/27 10:06:48;;;;;;;1.90;0.60;;;9.30;99.90;;;;;;5034916;28;20564;-73
2021/03/27 10:09:32;;;;;;;1.43;0.60;;;9.30;99.90;;;;;;5033438;28;20203;-74
2021/03/27 10:12:23;;;;;;;1.53;0.60;;;9.40;99.90;;;;;;5033333;28;20715;-73
2021/03/27 10:14:57;;;;;;;1.27;0.53;;;9.50;99.90;;;;;;5034966;28;20221;-73
2021/03/27 10:18:00;;;;;;;1.80;0.60;;;9.50;99.90;;;;;;5018398;28;20206;-74
2021/03/27 10:20:40;;;;;;;2.17;0.53;;;9.60;99.90;;;;;;5023785;28;20614;-73
2021/03/27 10:23:36;;;;;;;1.10;0.40;;;9.80;99.90;;;;;;5034438;28;20713;-73
2021/03/27 10:26:29;;;;;;;4.50;0.40;;;9.80;99.90;;;;;;5033195;28;20209;-74
2021/03/27 10:29:44;;;;;;;0.87;0.57;;;9.80;99.90;;;;;;5029186;28;20192;-74
2021/03/27 10:32:49;;;;;;;1.37;0.50;;;9.60;99.90;;;;;;5015964;28;20182;-74
2021/03/27 10:35:33;;;;;;;1.53;0.77;;;9.90;99.90;;;;;;5025139;28;20269;-74
2021/03/27 10:38:10;;;;;;;2.10;0.60;;;10.20;99.90;;;;;;5034030;28;20274;-74
2021/03/27 10:40:45;;;;;;;2.13;0.50;;;10.20;99.90;;;;;;5034109;28;20192;-74
2021/03/27 10:43:13;;;;;;;2.27;0.70;;;10.20;99.90;;;;;;5017181;28;20247;-74
2021/03/27 10:46:16;;;;;;;1.20;0.53;;;10.20;99.90;;;;;;5034166;28;20235;-74
2021/03/27 10:49:10;;;;;;;3.10;0.57;;;10.30;99.90;;;;;;5034253;28;20295;-74
2021/03/27 10:52:13;;;;;;;1.50;0.47;;;10.50;99.90;;;;;;5029252;28;20175;-73
2021/03/27 10:54:45;;;;;;;1.33;0.60;;;10.60;99.90;;;;;;5019953;28;20268;-74
2021/03/27 10:57:36;;;;;;;1.17;0.60;;;10.60;99.90;;;;;;5033597;28;20690;-74
2021/03/27 11:00:34;;;;;;;1.33;0.43;;;10.60;99.90;;;;;;5034119;28;20178;-74
2021/03/27 11:03:03;;;;;;;0.93;0.50;;;10.70;99.90;;;;;;5034157;28;20593;-74
2021/03/27 11:05:38;;;;;;;2.70;0.60;;;10.80;99.90;;;;;;5026008;28;20723;-74
2021/03/27 11:08:36;;;;;;;0.93;0.60;;;10.90;99.90;;;;;;5033566;28;20197;-74
2021/03/27 11:11:14;;;;;;;1.20;0.50;;;10.80;99.90;;;;;;5033940;28;20201;-74
2021/03/27 11:13:59;;;;;;;4.77;0.70;;;10.80;99.90;;;;;;5033588;28;20182;-74
2021/03/27 11:17:00;;;;;;;1.13;0.70;;;10.80;99.90;;;;;;5032744;28;20525;-74
2021/03/27 11:19:45;;;;;;;2.47;0.60;;;10.80;99.90;;;;;;5025918;28;20205;-74
2021/03/27 11:22:23;;;;;;;2.30;0.50;;;10.90;99.90;;;;;;5029132;28;20193;-74
2021/03/27 11:25:07;;;;;;;1.97;0.60;;;10.90;99.90;;;;;;5033538;28;20271;-74
2021/03/27 11:27:49;;;;;;;1.07;0.57;;;10.80;99.90;;;;;;5032364;28;20205;-74
2021/03/27 11:30:26;;;;;;;0.90;0.50;;;10.90;99.90;;;;;;5033465;28;20173;-74
2021/03/27 11:33:00;;;;;;;2.10;0.80;;;10.90;99.90;;;;;;5016194;28;20201;-74
2021/03/27 11:35:33;;;;;;;3.17;0.80;;;11.10;99.90;;;;;;5033372;28;20181;-75
2021/03/27 11:38:28;;;;;;;1.90;0.80;;;11.10;99.90;;;;;;5027063;28;20624;-74
2021/03/27 11:41:17;;;;;;;2.27;0.70;;;11.00;99.90;;;;;;5028436;28;20181;-74
2021/03/27 11:43:48;;;;;;;0.80;0.50;;;11.10;99.90;;;;;;5017485;28;20198;-75
2021/03/27 11:46:35;;;;;;;1.80;0.60;;;11.40;99.90;;;;;;5032824;28;20331;-76
2021/03/27 11:49:22;;;;;;;0.90;0.50;;;11.60;99.90;;;;;;5024517;28;20174;-75
2021/03/27 11:52:04;;;;;;;4.13;0.90;;;11.80;99.90;;;;;;5033292;28;20197;-75
2021/03/27 11:54:48;;;;;;;1.33;0.70;;;11.90;99.90;;;;;;5031794;28;20178;-75
2021/03/27 11:57:47;;;;;;;1.83;0.60;;;12.00;99.90;;;;;;5033026;28;20305;-75
2021/03/27 12:03:22;;;;;;;0.73;0.60;;;12.20;99.90;;;;;;5033041;28;20240;-75
2021/03/27 12:05:53;;;;;;;1.40;0.63;;;11.90;99.60;;;;;;5033957;28;20563;-76
2021/03/27 12:08:43;;;;;;;1.87;0.60;;;11.80;99.90;;;;;;5032749;28;20559;-75
2021/03/27 12:11:16;;;;;;;3.37;0.80;;;11.80;99.50;;;;;;5033189;28;20644;-75
2021/03/27 12:13:49;;;;;;;1.77;0.60;;;11.70;99.70;;;;;;5031592;28;20205;-76
2021/03/27 12:16:30;;;;;;;2.20;0.60;;;11.60;99.10;;;;;;5032927;28;20236;-75
2021/03/27 12:19:28;;;;;;;2.10;0.50;;;11.40;98.60;;;;;;5032824;28;20731;-76
2021/03/27 12:22:18;;;;;;;2.40;0.67;;;11.30;98.20;;;;;;5032826;28;20257;-75
2021/03/27 12:25:11;;;;;;;0.80;0.60;;;11.40;99.30;;;;;;5031308;28;20194;-75
2021/03/27 12:27:56;;;;;;;1.63;0.60;;;11.40;98.10;;;;;;5031308;28;20607;-76
2021/03/27 12:30:21;;;;;;;1.27;0.70;;;11.60;99.70;;;;;;5032716;28;20270;-75
2021/03/27 12:32:55;;;;;;;0.80;0.40;;;11.60;98.10;;;;;;5015463;28;20250;-75
2021/03/27 12:35:49;;;;;;;1.97;0.70;;;11.70;98.60;;;;;;5032984;28;20176;-76
2021/03/27 12:38:26;;;;;;;1.10;0.50;;;11.80;97.40;;;;;;5032461;28;20210;-75
2021/03/27 12:40:58;;;;;;;2.27;0.63;;;11.70;97.60;;;;;;5032934;28;20206;-75
2021/03/27 12:43:29;;;;;;;2.17;0.70;;;11.70;97.30;;;;;;5035675;28;20174;-75
2021/03/27 12:46:39;;;;;;;1.27;0.50;;;11.70;96.80;;;;;;5036275;28;20191;-75
2021/03/27 12:49:29;;;;;;;1.00;0.57;;;11.60;97.30;;;;;;5036233;28;20168;-76
2021/03/27 12:52:29;;;;;;;2.57;0.70;;;11.70;97.60;;;;;;5036194;28;20174;-75
2021/03/27 12:55:04;;;;;;;1.13;0.50;;;11.50;97.30;;;;;;5034686;28;20178;-75
2021/03/27 12:57:39;;;;;;;1.30;1.00;;;11.70;96.50;;;;;;5034768;28;20699;-75
2021/03/27 13:00:26;;;;;;;1.93;0.50;;;11.70;97.00;;;;;;5034832;28;20181;-75
2021/03/27 13:03:26;;;;;;;1.17;0.63;;;11.80;97.70;;;;;;5036065;28;20174;-75
2021/03/27 13:06:22;;;;;;;4.57;0.53;;;11.80;97.10;;;;;;5036207;28;20198;-75
2021/03/27 13:09:10;;;;;;;1.30;0.60;;;11.70;97.60;;;;;;5034690;28;20193;-76
2021/03/27 13:11:56;;;;;;;1.03;0.57;;;11.70;96.60;;;;;;5034644;28;20251;-75
2021/03/27 13:14:53;;;;;;;2.10;0.80;;;11.60;97.30;;;;;;5035978;28;20228;-75
2021/03/27 13:17:24;;;;;;;2.50;0.97;;;11.70;97.00;;;;;;5035652;28;20672;-75
2021/03/27 13:20:18;;;;;;;1.63;0.50;;;11.50;97.30;;;;;;5035721;28;20170;-76
2021/03/27 13:23:09;;;;;;;2.47;0.70;;;11.50;96.70;;;;;;5033842;28;20185;-76
2021/03/27 13:25:42;;;;;;;1.50;0.47;;;11.70;97.00;;;;;;5035582;28;20637;-76
2021/03/27 13:28:30;;;;;;;0.97;0.40;;;11.80;97.40;;;;;;5035547;28;20191;-76
2021/03/27 13:31:10;;;;;;;1.30;0.57;;;11.90;96.80;;;;;;5035737;28;20174;-75
2021/03/27 13:33:36;;;;;;;1.17;0.60;;;11.80;96.40;;;;;;5021376;28;20175;-75
2021/03/27 13:36:17;;;;;;;2.73;0.80;;;11.50;96.30;;;;;;5032074;28;20178;-75
2021/03/27 13:39:09;;;;;;;1.47;1.00;;;11.50;96.90;;;;;;5035445;28;20205;-75
2021/03/27 13:41:35;;;;;;;1.23;0.53;;;11.60;96.90;;;;;;5035657;28;20227;-75
2021/03/27 13:44:38;;;;;;;3.23;0.73;;;11.50;97.00;;;;;;5035267;28;20181;-75
2021/03/27 13:47:11;;;;;;;1.00;0.60;;;11.80;98.30;;;;;;5035138;28;20781;-75
2021/03/27 13:49:43;;;;;;;1.10;0.60;;;11.90;96.60;;;;;;5035073;28;20186;-75
2021/03/27 13:52:32;;;;;;;1.60;0.60;;;11.80;97.50;;;;;;5035146;28;20182;-75
2021/03/27 13:55:16;;;;;;;0.70;0.50;;;11.90;98.30;;;;;;5033819;28;20668;-75
2021/03/27 13:58:05;;;;;;;0.93;0.50;;;11.90;96.60;;;;;;5034921;28;20604;-75
2021/03/27 14:00:53;;;;;;;1.13;0.60;;;11.90;96.70;;;;;;5029057;28;20245;-75
2021/03/27 14:03:35;;;;;;;1.47;0.60;;;12.00;97.90;;;;;;5033712;28;20175;-75
2021/03/27 14:06:23;;;;;;;1.60;0.70;;;11.90;98.30;;;;;;5034848;28;20291;-75
2021/03/27 14:09:01;;;;;;;2.03;0.57;;;12.10;97.90;;;;;;5034791;28;20563;-75
2021/03/27 14:11:56;;;;;;;3.60;0.83;;;12.20;98.20;;;;;;5033593;28;20173;-75
2021/03/27 14:14:35;;;;;;;1.50;0.70;;;12.30;97.30;;;;;;5034734;28;20174;-75
2021/03/27 14:17:22;;;;;;;3.93;0.77;;;12.50;97.00;;;;;;5034596;28;20778;-75
2021/03/27 14:20:02;;;;;;;1.10;0.53;;;12.50;97.30;;;;;;5034637;28;20178;-75
2021/03/27 14:22:30;;;;;;;2.57;0.67;;;12.50;95.90;;;;;;5034634;28;20175;-72
2021/03/27 14:24:58;;;;;;;2.53;0.80;;;12.70;96.20;;;;;;5033537;28;20264;-73
2021/03/27 14:27:53;;;;;;;1.00;0.53;;;12.80;94.70;;;;;;5032979;28;20247;-72